Nearby METAR Reports

 

PAEN - Kenai, Alaska, USA
Distance from station: ESE 2mi, 4km
Updated: Tue, 19-Feb-2019 3:53pm AKST
Clear
Clear
 Wind from ENE
Wind: ENE 7 mph , 11 km/h
Temperature: 28°F , -2°C
Wind Chill: 21°F , -6°C
Dew Point: 23°F , -5°C
Humidity: 80%
Barometer: 30.17 inHg , 1021.7 hPa
Clouds: Clear
Visibility: 10 miles , 16 km
2019/02/20 00:53 PAEN 200053Z 06006KT 10SM CLR M02/M05 A3017 RMK AO2 SLP219 T10221050
PASX - Soldotna, Alaska, USA
Distance from station: SE 12mi, 19km
Updated: Tue, 19-Feb-2019 3:56pm AKST
Clear
Clear
 Wind from E
Wind: E 7 mph , 11 km/h
Temperature: 30°F , -1°C
Wind Chill: 23°F , -5°C
Dew Point: 21°F , -6°C
Humidity: 69%
Barometer: 30.19 inHg , 1022.4 hPa
Clouds: Clear
Visibility: 10 miles , 16 km
2019/02/20 00:56 PASX 200056Z AUTO 09006KT 10SM CLR M01/M06 A3019 RMK AO2 RAE2358 SLP234 P0000 T10061061 FZRANO
 
PANC - Anchorage Intl, Alaska, USA
Distance from station: NE 59mi, 96km
Updated: Tue, 19-Feb-2019 3:53pm AKST
Few Clouds
Few Clouds
 Wind from NNW
Wind: NNW 8 mph , 13 km/h
Temperature: 30°F , -1°C
Wind Chill: 22°F , -6°C
Dew Point: 16°F , -9°C
Humidity: 55%
Barometer: 30.14 inHg , 1020.7 hPa
Clouds: Few Clouds
Visibility: 10 miles , 16 km
Cloud details: Few Clouds 5000 ft
Few Clouds 25000 ft
2019/02/20 00:53 PANC 200053Z 33007KT 10SM FEW050 FEW250 M01/M09 A3014 RMK AO2 SLP210 T10111089
PALH - Anchorage/Lake H, Alaska, USA
Distance from station: NE 61mi, 99km
Updated: Tue, 19-Feb-2019 3:53pm AKST
Clear
Clear
 Wind from N
Wind: N 7 mph , 11 km/h
Temperature: 28°F , -2°C
Wind Chill: 21°F , -6°C
Dew Point: 16°F , -9°C
Humidity: 59%
Barometer: 30.16 inHg , 1021.3 hPa
Clouds: Clear
Visibility: 10 miles , 16 km
2019/02/20 00:53 PALH 200053Z 36006KT 10SM CLR M02/M09 A3016 RMK AO2 SLP212 T10221094
 
PAHO - Homer, Alaska, USA
Distance from station: S 66mi, 106km
Updated: Tue, 19-Feb-2019 3:53pm AKST
Clear
Clear
 Wind from NNE
Wind: NNE 6 mph , 9 km/h
Temperature: 36°F , 2°C
Wind Chill: 31°F , -1°C
Dew Point: 19°F , -7°C
Humidity: 52%
Barometer: 30.15 inHg , 1021 hPa
Clouds: Clear
Visibility: 10 miles , 16 km
2019/02/20 00:53 PAHO 200053Z 03005KT 10SM CLR 02/M07 A3015 RMK AO2 SLP209 T00171072
PAMR - Anchorage/Merril, Alaska, USA
Distance from station: NE 66mi, 106km
Updated: Tue, 19-Feb-2019 3:53pm AKST
Clear
Clear
 Wind from NNW
Wind: NNW 6 mph , 9 km/h
Temperature: 28°F , -2°C
Wind Chill: 21°F , -6°C
Dew Point: 16°F , -9°C
Humidity: 59%
Barometer: 30.14 inHg , 1020.7 hPa
Clouds: Clear
Visibility: 10 miles , 16 km
2019/02/20 00:53 PAMR 200053Z 34005KT 10SM CLR M02/M09 A3014 RMK AO2 SLP209 T10171089
 
PAED - Elmendorf Afb, Alaska, USA
Distance from station: NE 69mi, 110km
Updated: Tue, 19-Feb-2019 3:56pm AKST
Few Clouds
Few Clouds
 Wind from NNE
Wind: NNE 7 mph , 11 km/h
Temperature: 28°F , -2°C
Wind Chill: 21°F , -6°C
Dew Point: 18°F , -8°C
Humidity: 64%
Barometer: 30.14 inHg , 1020.7 hPa
Clouds: Few Clouds
Visibility: 10 miles , 16 km
Cloud details: Few Clouds 20000 ft
2019/02/20 00:56 PAED 200056Z 02006KT 10SM FEW200 M02/M08 A3014 RMK AO2A SLP204 T10201077
PAWD - Seward, Alaska, USA
Distance from station: ESE 71mi, 115km
Updated: Tue, 19-Feb-2019 3:53pm AKST
Clear
Clear
 Wind from N
Wind: N 15 mph , 24 km/h, Gust: 23 mph , 37 km/h
Temperature: 34°F , 1°C
Wind Chill: 24°F , -4°C
Dew Point: 12°F , -11°C
Humidity: 41%
Barometer: 30.09 inHg , 1019 hPa
Clouds: Clear
Visibility: 10 miles , 16 km
2019/02/20 00:53 PAWD 200053Z AUTO 35013G20KT 10SM CLR 01/M11 A3009 RMK SLP189 T00061106 TSNO $ VIA AUTODIAL
 
PASC - Deadhorse, Alaska, USA
Distance from station: ENE 670mi, 1078km
Updated: Tue, 19-Feb-2019 3:53pm AKST
Heavy snow, Blowing, Snow, Freezing, Fog, Overcast
Heavy snow, Blowing, Snow, Freezing, Fog, Overcast
 Wind from W
Wind: W 32 mph , 52 km/h
Temperature: -0°F , -18°C
Wind Chill: -27°F , -33°C
Dew Point: -6°F , -21°C
Humidity: 78%
Barometer: 30.22 inHg , 1023.4 hPa
Summary: Heavy snow, Blowing, Snow, Freezing, Fog
Clouds: Overcast
Visibility: 1/4 mile , 0.4 km
Cloud details: Overcast 400 ft
2019/02/20 00:53 PASC 200053Z 27028KT 1/4SM R06/1800V2600FT +SN BLSN FZFG VV004 M18/M21 A3022 RMK AO2 PK WND 27036/0002 SLP237 P0001 T11781206
PAAD - Point Thomson, Alaska, USA
Distance from station: ENE 680mi, 1094km
Updated: Tue, 19-Feb-2019 3:55pm AKST
Heavy Snow
Heavy Snow
 Wind from WSW
Wind: WSW 41 mph , 67 km/h, Gust: 48 mph , 78 km/h
Temperature: 1°F , -17°C
Wind Chill: -28°F , -33°C
Dew Point: -2°F , -19°C
Humidity: 85%
Barometer: 30.18 inHg , 1022 hPa
Summary: Heavy Snow
Visibility: less than 1/4 mile , 0.4 km
2019/02/20 00:55 PAAD 200055Z AUTO 25036G42KT M1/4SM +SN M17/M19 A3018 RMK AO2 T11721190


kenaipeople.com website

Dans Automotive

Lower Peninsula Power Sports

Freddies RoadHouse

Alaska Weather Net